Текущая Т° на юге МО

Полезные ссылки:
Метеоцентр.Азия - наш сайт с высокодетализированными прогнозами погоды по пунктам Pоссии и мира
Облегчённая версия Метеоклуба (для смартфонов)

Текущая Т° на юге МО

Сейчас в Метеоклубе:
Участников - 0
Максимальное одновременное количество посетителей: 308 [2 Ноя 2013 22:42]
Гостей - 296 / Участников - 12

 - Начало - Ответить - Статистика - Pегистрация - Поиск -

МЕТЕОКЛУБ : независимое сообщество любителей метеорологии (Европа и Азия) : ФОРУМ О ПОГОДЕ И ПРИРОДЕ / Метеорологические приборы и методики наблюдений / Текущая Т° на юге МО
<< 1 ... 9 . 10 . 11 . 12 . 13 . 14 . 15 . 16 . 17 . 18 . 19 ... 53 . 54 . >>
Автор Сообщение
slava31
Участник

Монино
# Дата: 5 Сен 2009 21:53


Солнце пекло как в июле.
LESS
да, уж-сегодня в затишке было жарко даже в футболке :)

LESS
Участник

Приокский лесс на юге МО
# Дата: 5 Сен 2009 23:10 - Поправил: LESS


Без футболки третий день хожу.

LESS
Участник

Приокский лесс на юге МО
# Дата: 6 Сен 2009 00:08


Я таких ровных столбиков данных для "Домодедово" в МЕТАРе никогда не видел (и даже не представлял, что такие бывают).

Сутки полной тишины. На южном фронте - без перемен. В Окограде всё спокойно...

UUDD 051930Z 14003MPS CAVOK 14/11 Q1016 NOSIG=
UUDD 051900Z 13003MPS CAVOK 15/12 Q1016 NOSIG=
UUDD 051830Z 14003MPS CAVOK 15/11 Q1016 NOSIG=
UUDD 051800Z 14003MPS CAVOK 15/11 Q1016 NOSIG=
UUDD 051730Z 12003MPS CAVOK 18/12 Q1016 NOSIG=
UUDD 051700Z 15003MPS CAVOK 15/13 Q1016 NOSIG=
UUDD 051630Z 15003MPS CAVOK 16/14 Q1016 NOSIG=
UUDD 051600Z 15002MPS CAVOK 18/14 Q1016 NOSIG=
UUDD 051530Z 15003MPS CAVOK 20/13 Q1016 NOSIG=
UUDD 051500Z 14004MPS CAVOK 23/13 Q1016 NOSIG=
UUDD 051430Z 15006MPS CAVOK 24/11 Q1016 NOSIG=
UUDD 051400Z 15006MPS CAVOK 24/11 Q1016 NOSIG=
UUDD 051330Z 15007MPS CAVOK 25/09 Q1016 NOSIG=
UUDD 051300Z 15009MPS CAVOK 25/10 Q1016 NOSIG=
UUDD 051230Z 15008MPS CAVOK 25/11 Q1016 NOSIG=
UUDD 051200Z 14008MPS CAVOK 24/10 Q1017 NOSIG=
UUDD 051130Z 15008MPS CAVOK 25/09 Q1017 NOSIG=
UUDD 051100Z 15008MPS CAVOK 24/09 Q1017 NOSIG=
UUDD 051030Z 14008MPS CAVOK 24/06 Q1017 NOSIG=
UUDD 051000Z 14007MPS CAVOK 24/07 Q1017 NOSIG=
UUDD 050930Z 16007MPS CAVOK 24/07 Q1018 NOSIG=
UUDD 050900Z 16007MPS CAVOK 24/08 Q1018 NOSIG=
UUDD 050830Z 15007MPS CAVOK 23/07 Q1018 NOSIG=
UUDD 050800Z 15006MPS CAVOK 22/07 Q1019 NOSIG=
UUDD 050730Z 16005MPS CAVOK 22/08 Q1019 NOSIG=
UUDD 050700Z 16005MPS CAVOK 20/09 Q1019 NOSIG=
UUDD 050630Z 15005MPS CAVOK 19/11 Q1019 NOSIG=
UUDD 050600Z 15004MPS CAVOK 17/10 Q1019 NOSIG=
UUDD 050530Z 15005MPS CAVOK 15/10 Q1019 NOSIG=
UUDD 050500Z 15004MPS CAVOK 14/09 Q1019 NOSIG=
UUDD 050430Z 13004MPS CAVOK 13/09 Q1019 NOSIG=
UUDD 050400Z 13003MPS 110V240 CAVOK 11/09 Q1019 NOSIG=
UUDD 050330Z 14002MPS CAVOK 10/08 Q1019 NOSIG=
UUDD 050300Z 15001MPS CAVOK 10/08 Q1019 NOSIG=
UUDD 050230Z 11002MPS CAVOK 11/08 Q1019 NOSIG=
UUDD 050200Z 11001MPS CAVOK 10/08 Q1019 NOSIG=
UUDD 050130Z 12001MPS CAVOK 10/08 Q1019 NOSIG=
UUDD 050100Z 12001MPS CAVOK 10/08 Q1019 NOSIG=
UUDD 050030Z 12001MPS CAVOK 10/09 Q1019 NOSIG=
UUDD 050000Z 12001MPS CAVOK 10/09 Q1019 NOSIG=
UUDD 042330Z 12001MPS CAVOK 11/09 Q1019 NOSIG=
UUDD 042300Z 00000MPS CAVOK 11/09 Q1019 NOSIG=
UUDD 042230Z 10001MPS CAVOK 12/10 Q1019 NOSIG=
UUDD 042200Z 12001MPS CAVOK 13/10 Q1019 NOSIG=
UUDD 042130Z 13001MPS CAVOK 13/09 Q1019 NOSIG=
UUDD 042100Z 12001MPS CAVOK 12/09 Q1019 NOSIG=
UUDD 042030Z 00000MPS CAVOK 12/08 Q1019 NOSIG=
UUDD 042000Z 15003MPS CAVOK 12/08 Q1019 NOSIG=

Subtropic
Участник

Ростов н/Д, Россия
# Дата: 6 Сен 2009 00:32 - Поправил: Subtropic


LESS
Без футболки третий день хожу.
slava31
да, уж-сегодня в затишке было жарко даже в футболке :)
Да-а-а ребята,видать долго Вы в Москве тепла не видели...:-)
Рад за жителей Москвы и Подмосковья,что вас порадовало и продолжает радовать непривычное Вам сентябрьское тепло!
Никогда бы не подумал,что для Москвы это целая проблема-иметь в первую неделю сентября Т +23+27С...
*сейчас московская погода напоминает октябрьское бабье лето на нижнем Дону.Точь в точь.Свежие ночи с Т +9+11С и днём так же,как сейчас у вас.
-------
Вообще в данном случае о каком то глобальном потеплении говорить на мой взгляд рано.Ранее,судя по архивам в Московском регионе это было обычным делом-иметь подобные Т в начале и даже середине сентября.Подобное сегодняшнему теплу было "запросто" в 1951,55,57,63,68,72,74,75,77.Какая частота! И всё.Потом приличный перерыв до 95 го...(узнать бы причину столь резкого отказа системы) Поэтому можно предположить-что возможно мы наблюдаем лишь пробный "откат" к сентябрям 50-70х и нормам тех лет.

LESS
Участник

Приокский лесс на юге МО
# Дата: 6 Сен 2009 10:59


Subtropic

Да-а-а ребята,видать долго Вы в Москве тепла не видели...:-)

Не, ну тепло то мы на курортах видели. Эта функция (раздевание при виде солнечного тепла) никак с предыдущим периодом времени (и погдой в нём) не связана. Просто, когда жарко и есть возможность позагорать - надо раздеться и подставить себя солнечным лучам. Естественое весьма желание.

и продолжает радовать непривычное Вам сентябрьское тепло!

Да уж, утро снова тёплое: у нас в МО +20* С, в Нижнем Новгороде вообще смотрю +22* С сутра!

Вообще в данном случае о каком то глобальном потеплении говорить на мой взгляд рано

О глобальном потеплении говорить ненужно вообще никогда. И даже о локальном говорить не приходится. И за словосочетанием "расширение границ тёплого сезона на юге МО" не прячется термин "климатический сдвиг" или "изменение климата навсегда" - речь всегда только (и только) о кратковременной (!) мезоклиматической флуктуации в регионе.

Вообще в данном случае о каком то глобальном потеплении говорить на мой взгляд рано.Ранее,судя по архивам в Московском регионе это было обычным делом-иметь подобные Т в начале и даже середине сентября.Подобное сегодняшнему теплу было "запросто" в 1951,55,57,63,68,72,74,75,77.Какая частота! И всё.Потом приличный перерыв до 95 го...(узнать бы причину столь резкого отказа системы) Поэтому можно предположить-что возможно мы наблюдаем лишь пробный "откат" к сентябрям 50-70х и нормам тех лет.

О том и речь !!!!

LESS
Участник

Приокский лесс на юге МО
# Дата: 6 Сен 2009 11:00 - Поправил: LESS


Метар в "Домодедово" снова красив и строен, как пушкинский Петербург:

UUDD MOSCOW/DOMODEDOV -- RA


Raw surface observations for station UUDD


UUDD 060630Z 16006MPS CAVOK 20/14 Q1016 NOSIG=
UUDD 060600Z 16005MPS CAVOK 19/14 Q1016 NOSIG=
UUDD 060530Z 16005MPS CAVOK 17/13 Q1016 NOSIG=
UUDD 060500Z 15005MPS 130V200 CAVOK 16/13 Q1016 NOSIG=
UUDD 060430Z 16004MPS CAVOK 15/12 Q1016 NOSIG=
UUDD 060400Z 15005MPS CAVOK 14/12 Q1016 NOSIG=
UUDD 060330Z 15004MPS CAVOK 13/11 Q1016 NOSIG=
UUDD 060300Z 15005MPS CAVOK 12/10 Q1016 NOSIG=
UUDD 060230Z 15004MPS CAVOK 11/10 Q1015 NOSIG=
UUDD 060200Z 14002MPS CAVOK 11/10 Q1016 NOSIG=
UUDD 060130Z 13002MPS CAVOK 11/10 Q1015 NOSIG=
UUDD 060100Z 14002MPS CAVOK 12/09 Q1015 NOSIG=
UUDD 060030Z 13002MPS CAVOK 12/10 Q1016 NOSIG=
UUDD 060000Z 13002MPS CAVOK 11/10 Q1016 NOSIG=
UUDD 052330Z 16003MPS CAVOK 12/10 Q1016 NOSIG=
UUDD 052300Z 13002MPS CAVOK 12/10 Q1015 NOSIG=
UUDD 052230Z 13002MPS CAVOK 12/11 Q1015 NOSIG=
UUDD 052200Z 15003MPS CAVOK 12/11 Q1015 NOSIG=
UUDD 052130Z 14003MPS CAVOK 13/11 Q1015 NOSIG=
UUDD 052100Z 12001MPS CAVOK 13/11 Q1015 NOSIG=
UUDD 052030Z 13001MPS CAVOK 13/12 Q1015 NOSIG=
UUDD 052000Z 14003MPS CAVOK 14/11 Q1016 NOSIG=
UUDD 051930Z 14003MPS CAVOK 14/11 Q1016 NOSIG=
UUDD 051900Z 13003MPS CAVOK 15/12 Q1016 NOSIG=
UUDD 051830Z 14003MPS CAVOK 15/11 Q1016 NOSIG=
UUDD 051800Z 14003MPS CAVOK 15/11 Q1016 NOSIG=
UUDD 051730Z 12003MPS CAVOK 18/12 Q1016 NOSIG=
UUDD 051700Z 15003MPS CAVOK 15/13 Q1016 NOSIG=
UUDD 051630Z 15003MPS CAVOK 16/14 Q1016 NOSIG=
UUDD 051600Z 15002MPS CAVOK 18/14 Q1016 NOSIG=
UUDD 051530Z 15003MPS CAVOK 20/13 Q1016 NOSIG=
UUDD 051500Z 14004MPS CAVOK 23/13 Q1016 NOSIG=
UUDD 051430Z 15006MPS CAVOK 24/11 Q1016 NOSIG=
UUDD 051400Z 15006MPS CAVOK 24/11 Q1016 NOSIG=
UUDD 051330Z 15007MPS CAVOK 25/09 Q1016 NOSIG=
UUDD 051300Z 15009MPS CAVOK 25/10 Q1016 NOSIG=
UUDD 051230Z 15008MPS CAVOK 25/11 Q1016 NOSIG=
UUDD 051200Z 14008MPS CAVOK 24/10 Q1017 NOSIG=
UUDD 051130Z 15008MPS CAVOK 25/09 Q1017 NOSIG=
UUDD 051100Z 15008MPS CAVOK 24/09 Q1017 NOSIG=
UUDD 051030Z 14008MPS CAVOK 24/06 Q1017 NOSIG=
UUDD 051000Z 14007MPS CAVOK 24/07 Q1017 NOSIG=
UUDD 050930Z 16007MPS CAVOK 24/07 Q1018 NOSIG=
UUDD 050900Z 16007MPS CAVOK 24/08 Q1018 NOSIG=
UUDD 050830Z 15007MPS CAVOK 23/07 Q1018 NOSIG=
UUDD 050800Z 15006MPS CAVOK 22/07 Q1019 NOSIG=
UUDD 050730Z 16005MPS CAVOK 22/08 Q1019 NOSIG=
UUDD 050700Z 16005MPS CAVOK 20/09 Q1019 NOSIG=
UUDD 050630Z 15005MPS CAVOK 19/11 Q1019 NOSIG=
UUDD 050600Z 15004MPS CAVOK 17/10 Q1019 NOSIG=

LESS
Участник

Приокский лесс на юге МО
# Дата: 7 Сен 2009 11:06


У нас сутра воздух совершенно неподвижен! Такая тишина (тихо всмысле штиль), словно мы на другой планете...

LESS
Участник

Приокский лесс на юге МО
# Дата: 7 Сен 2009 11:07


По ссылке хорошо видно, какая часть МО вчера "подверглась" облачному покрову:

http://smis.iki.rssi.ru/dataserv/rus_ms/w_msc_r.ht m

LESS
Участник

Приокский лесс на юге МО
# Дата: 7 Сен 2009 12:37


Всё утро общаюсь с жителями столицы. Никто даже поверить не может, что у нас тут вчера дождя не было! Все говорят, что в Москве поливал во всю!

Да, сухое у нас тут место. И тихое...

LESS
Участник

Приокский лесс на юге МО
# Дата: 7 Сен 2009 12:48


Над югом МО сияет Солнце, идёт прогрев. Но при этом всё небо в какой-то плотной дымке...

slava31
Участник

Монино
# Дата: 7 Сен 2009 13:53


LESS
у нас дождя не было, но пасмурно в основном, Тмакс+18,7 к 13-20 мск

LESS
Участник

Приокский лесс на юге МО
# Дата: 7 Сен 2009 14:35


slava31

у нас дождя не было, но пасмурно в основном, Тмакс+18,7 к 13-20 мск

Это Вы, наверное, про сегодня говорите?

Про дожди в столице - речь про минувшие метеосутки, т.е. про вчера.

Пасмурность вашу к северу от нас хорошо вижу с самого утра. У нас в просветах солнечное сияние наблюдается.

Вообще, сегодня ведущий поток как и в предыдущие дни слабый, облачность весьма статична на небе: самое время для калиброки систем наблюдения и позционарования облачности (это к дискуссии о том, какое облако откуда с земли видно).

LESS
Участник

Приокский лесс на юге МО
# Дата: 7 Сен 2009 14:41


slava31

у нас дождя не было, но пасмурно в основном, Тмакс+18,7 к 13-20 мск

Негусто. В г.Коломна на 13 МСК Твозд +25* С! (+24.8* С, если уж совсем быть точным). В Кашире +22.5* С.

Кстати! Так вот и не понял из ответов участников (некоторое время тому назад), как должна изменяться Твозд с высотой (по сухой и влажной адиабате соответственно)? Проще говоря, на метеостанции в городе Кашире, расположенной на 100 метров выше нас над уровнем моря, должно быть на 1* С холоднее (при общих равных условиях) или нет?

Хорошо помню, как в ходе восхождения на гору Сокол в Крыму был удивлён, что с подъёмом на 500 метров Твозд понизилась на 5* С.

slava31
Участник

Монино
# Дата: 7 Сен 2009 17:38


Про дожди в столице - речь про минувшие метеосутки, т.е. про вчера
LESS
и вчера у нас сухо и тепло было

LESS
Участник

Приокский лесс на юге МО
# Дата: 8 Сен 2009 10:42


slava31

в Монино в 8 утра пасмурно и влажно( недавно прошел небольшой дождь) Тмин +13,0°

А у нас осадки отсутствуют как класс уже больше недели (последние ещё летом выпадали, 31 августа - тогда выпал аж 1 мм атм.осадков)!

LESS
Участник

Приокский лесс на юге МО
# Дата: 8 Сен 2009 10:53


Пока не ушло в "небытиё", выпишу сюда текущие Тмакс за последнюю неделю по метеостанции в г.Коломна.

дата изм Тмакс
02.09.09 24.7
03.09.09 25.3
04.09.09 25.5
05.09.09 26.5
06.09.09 26.3
07.09.09 27.0
08.09.09
09.09.09

Данные отсюда: http://rp5.ru/archive.php?wmo_id=27625

Snowsquall2010
Участник

Раменское, Гжель, Жуковский МО, Россия
# Дата: 8 Сен 2009 13:35 - Поправил: Snowsquall2010


LESS
Пока не ушло в "небытиё", выпишу сюда текущие Тмакс за последнюю неделю по метеостанции в г.Коломна.

В Волоколамске хотя бы не так жарко, средний Тмакс меньше более, чем на 4 градуса:
02.09.09 23.5
03.09.09 23.6
04.09.09 24.1
05.09.09 23.3
06.09.09 21.7
07.09.09 13.7

Думаю, не очень объективно говорить о значительном потеплении климата и расширении летнего сезона только по 1-2 выбранным станциям, почему выбрана именно Коломна?
Может быть лучше Наро-Фоминск, тем более он не так уж и далеко от Серпухова.
Тмакс в Наро-Фоминске
02.09.09 24.3
03.09.09 24.8
04.09.09 25.0
05.09.09 25.3
06.09.09 19.9
07.09.09 14.6

LESS
Участник

Приокский лесс на юге МО
# Дата: 8 Сен 2009 13:56


Snowsquall2010

В Волоколамске хотя бы не так жарко

А причём тут геопункты Московской возвышенности, если мы говорим про север Среднерусской и его "предгорье" (т.е. про юг МО)?

Думаю, не очень объективно говорить о значительном потеплении климата и расширении летнего сезона только по 1-2 выбранным станциям, почему выбрана именно Коломна?

О каком значительном потеплении КЛИМАТА (не мезоклимата небольшого специфичного района, а КЛИМАТА в широком понятии) кто и где говорит (процитируйте, пожалуйста)?

только по 1-2 выбранным станциям, почему выбрана именно Коломна?

Предлагаю добавить Тулу и Рязань. Кстати заметить, "легендарные" Черусти удалены от Москвы почти так же, как и областные центры соседних с МО областей - Рязань, Тула, Калуга, Тверь...

Может быть лучше Наро-Фоминск, тем более он не так уж и далеко от Серпухова

Тут одни участник из ГМЦ (он уже давно не появляется на форуме) рассказывал об орографическом делении МО на две "половины", в чём с ним и с другими специалистами я лично согласен. И "маргинальный" Наро-Фоминск здесь, на мой взгляд, совсем не показателен (ещё раз обращаю внимание, что геопункты Московской возвышенности для описания предполагаемого мною процесса не подходят по географическим причинам).

LESS
Участник

Приокский лесс на юге МО
# Дата: 8 Сен 2009 15:48


Те на сегодня и завтра прогнозировалась выше +30* С http://meteocenter.net/ums_.htm

Так оно и есть... Душно (не смотря на то, что Твозд ненамного выше +20* С).

LESS
Участник

Приокский лесс на юге МО
# Дата: 8 Сен 2009 16:42


Серпухов и Коломна на 16 МСК всего +22* С. Слабенько как-то...

LESS
Участник

Приокский лесс на юге МО
# Дата: 9 Сен 2009 10:46


У нас очень тёплое (по-летнему, я бы сказал) утро.

UUDD 090630Z VRB01MPS 8000 SCT200 19/15 Q1032 NOSIG=
UUDD 090600Z VRB01MPS 5000 BR FEW100 18/15 Q1032 NOSIG=

Тросы при этом тоже очень высокая: +15* С!

Комфортно, очень комфортно. Тихо (штиль), солнечно (сияние), чисто (относительно прозрачная ВМ), сухо (осадков с лета не было), зелёная и свежая трава как весной (роса + сказался недавний сенокос), простор и раздолье...

Словами не передать.

Shadow
Участник

Санкт-Петербург
# Дата: 9 Сен 2009 11:23


LESS
Snowsquall2010
Что-то я не понял, неужели 7 сентября Тмакс в Наро-Фоминске и Коломне отличалась почти на 13 градусов?!

LESS
Участник

Приокский лесс на юге МО
# Дата: 9 Сен 2009 11:40 - Поправил: LESS


Shadow

Тмакс в г.Коломна от 07.09.2009 в "размере" +27* С подтверждаю. Осталось спросить Сноускуалла2010, почему у него по Волоколамску и по Наро-Фоминску в графе "Тмакс" +14* С указано...

Balin
Участник

Люберцы. МО
# Дата: 9 Сен 2009 13:16 - Поправил: Balin


неужели 7 сентября Тмакс в Наро-Фоминске и Коломне отличалась почти на 13 градусов?!
Shadow

А что Вас так удивляет? В эти дни к Москве подошел атмосферный фронт, сейчас он размылся. В Москве и к западу было прохладно. В Москве было +18+19 С, в Павловском Посаде, где облачность фронта не дошла, было до +24 С.

Осталось спросить Сноускуалла2010, почему у него по Волоколамску и по Наро-Фоминску в графе "Тмакс" +14* С указано...
LESS

Потому что так было, и такие данные дает rp5:
Наро-Фоминск: http://rp5.ru/archive.php?wmo_id=27611
Волоколамск: http://rp5.ru/archive.php?wmo_id=27502

LESS
Участник

Приокский лесс на юге МО
# Дата: 9 Сен 2009 13:34


Потому что так было, и такие данные дает rp5:
Наро-Фоминск: http://rp5.ru/archive.php?wmo_id=27611
Волоколамск: http://rp5.ru/archive.php?wmo_id=27502


Shadow

неужели 7 сентября Тмакс в Наро-Фоминске и Коломне отличалась почти на 13 градусов?!

Отвечаю на Ваш впорос: да, отличалась на 12 градусов.

И это не ошибка, ибо общий температурный фон на юге и юго-востоке области в этот день значительно отличался от температурного фона на западе и северо-западе МО.

LESS
Участник

Приокский лесс на юге МО
# Дата: 9 Сен 2009 14:25


На 14 МСК у нас Твозд всего +22* С. Слабенько прогрев идёт. Северный веторок портит всю картину "успеваемости"...

LESS
Участник

Приокский лесс на юге МО
# Дата: 10 Сен 2009 09:29


Юг МО снова за минувшие метеосутки "впереди области всей".
Тмакс на градус-полтора выше, чем по другим метеостанциям МО.

Серпухов +24.2* С
Коломна +24.1* С

У нас тёплое летнее утро. Твозд уже +14* С. На ясном небе сияет Солнце. Тихо (ветра нет и адвекции холодной ВМ тоже не наблюдается). Идёт прогрев. Сегодня снова по-летнему прогреемся.

Shadow
Участник

Санкт-Петербург
# Дата: 10 Сен 2009 09:47


LESS
Похоже, к моему возвращению в Москву все войдет в норму? Уж +27 вряд ли будет...

LESS
Участник

Приокский лесс на юге МО
# Дата: 10 Сен 2009 11:55


Shadow

Когда планируете возвращение? (сорри, если где-то на страницах форумы Вы уже сообщали об этом, а я не заметил этого сообщения)

У нас сейчас речь об уникальном в своём роде погодном явлении на юге МО и к югу от юга МО.

Метеостанции трёх крупнейших городов в этом регионе (для спраки: Тула с населением с пригородами 650 000 человек, Рязань с населением 1 200 000 человек и Коломна с населением 150 000 человек) фиксируют продолжительный (скоро будет целая декада) период аномально тёплой погоды, с очень слабым (средним) ветром (менее 4 м\с) и продолжительными периодами штиля (от 0 до 1 м\с), слабым ведущим потоком, продолжительным солнечным сиянием и высокими Тср по метеосуткам.

Все данные можно посмотреть в соотв.архивах погоды.

Попытки найти подобный период в метеоистории данных городов пока не увенчалась успехом. Если кто-то видит что-то другое, буду рад комментариям.

А пока первая декада сентября в указанных городах в нашем регионе (а, если быть точным, то не вся декада, а период начиная со второго сентября) идёт на абсолютный рекорд (по непрерывности ряда таких "высоких" значений Тмакс)!

Subtropic
Участник

Ростов н/Д, Россия
# Дата: 10 Сен 2009 12:16


LESS
Рязань с населением 1 200 000 человек
Ну наверное имеется ввиду вся Рязанская область,а то в Рязани жителей в 2,5 раза меньше...

<< 1 ... 9 . 10 . 11 . 12 . 13 . 14 . 15 . 16 . 17 . 18 . 19 ... 53 . 54 . >>
Ваш ответ

          Отменить *Что это?

 » Логин  » Пароль 
 
 


Поддержка: miniBB forum software © 2001-2024